createdAt,value
2018-06-09T00:00:44.693Z,66.55
2018-06-09T00:01:44.751Z,66.75
2018-06-09T00:02:44.844Z,66.94
2018-06-09T00:03:44.662Z,66.85
2018-06-09T00:04:44.656Z,66.55
2018-06-09T00:05:44.652Z,66.65
2018-06-09T00:06:44.647Z,66.55
2018-06-09T00:07:44.643Z,66.46
2018-06-09T00:08:44.671Z,66.46
2018-06-09T00:09:44.639Z,66.65
2018-06-09T00:10:44.654Z,66.85
2018-06-09T00:11:44.652Z,66.85
2018-06-09T00:12:44.614Z,66.75
2018-06-09T00:13:44.665Z,66.55
2018-06-09T00:14:44.657Z,66.46
2018-06-09T00:15:44.591Z,66.75
2018-06-09T00:16:44.633Z,66.36
2018-06-09T00:17:44.586Z,66.36
2018-06-09T00:18:45.649Z,66.27
2018-06-09T00:19:44.588Z,66.27
2018-06-09T00:20:44.568Z,66.94
2018-06-09T00:21:44.554Z,67.03
2018-06-09T00:22:44.546Z,66.55
2018-06-09T00:23:44.548Z,66.85
2018-06-09T00:24:44.594Z,66.55
2018-06-09T00:25:44.552Z,66.65
2018-06-09T00:26:44.566Z,66.75
2018-06-09T00:27:44.518Z,67.23
2018-06-09T00:28:44.516Z,66.94
2018-06-09T00:29:44.514Z,66.85
2018-06-09T00:30:44.512Z,67.23
2018-06-09T00:31:44.525Z,66.75
2018-06-09T00:32:44.503Z,66.94
2018-06-09T00:33:44.500Z,66.75
2018-06-09T00:34:44.854Z,67.03
2018-06-09T00:35:44.475Z,66.55
2018-06-09T00:36:44.514Z,65.88
2018-06-09T00:37:44.471Z,65.98
2018-06-09T00:38:44.464Z,65.69
2018-06-09T00:39:45.104Z,65.66
2018-06-09T00:40:44.484Z,66.24
2018-06-09T00:41:44.489Z,66.33
2018-06-09T00:42:44.446Z,66.04
2018-06-09T00:43:44.428Z,65.94
2018-06-09T00:44:44.534Z,66.62
2018-06-09T00:45:44.419Z,66.91
2018-06-09T00:46:44.414Z,66.81
2018-06-09T00:47:44.429Z,66.42
2018-06-09T00:48:44.411Z,67.10
2018-06-09T00:49:44.755Z,67.29
2018-06-09T00:50:44.380Z,67.00
2018-06-09T00:51:44.571Z,67.00
2018-06-09T00:52:44.376Z,66.91
2018-06-09T00:53:44.371Z,67.07
2018-06-09T00:54:44.369Z,67.10
2018-06-09T00:55:44.492Z,66.81
2018-06-09T00:56:44.356Z,67.19
2018-06-09T00:57:44.351Z,66.91
2018-06-09T00:58:44.339Z,66.91
2018-06-09T00:59:44.336Z,66.81
2018-06-09T01:00:44.327Z,67.29
2018-06-09T01:01:44.359Z,67.58
2018-06-09T01:02:44.317Z,67.19
2018-06-09T01:03:44.310Z,67.39
2018-06-09T01:04:44.306Z,67.39
2018-06-09T01:05:44.302Z,67.58
2018-06-09T01:06:44.366Z,67.29
2018-06-09T01:07:44.297Z,67.87
2018-06-09T01:08:44.279Z,68.26
2018-06-09T01:09:45.108Z,68.16
2018-06-09T01:10:44.266Z,68.44
2018-06-09T01:11:44.264Z,68.06
2018-06-09T01:12:44.297Z,68.35
2018-06-09T01:13:44.259Z,67.97
2018-06-09T01:14:44.256Z,67.97
2018-06-09T01:15:44.237Z,68.26
2018-06-09T01:16:44.236Z,68.26
2018-06-09T01:17:44.247Z,68.06
2018-06-09T01:18:44.250Z,68.16
2018-06-09T01:19:44.223Z,68.16
2018-06-09T01:20:44.198Z,68.26
2018-06-09T01:21:44.201Z,68.44
2018-06-09T01:22:44.255Z,68.44
2018-06-09T01:23:44.193Z,68.16
2018-06-09T01:24:44.170Z,68.06
2018-06-09T01:25:44.175Z,67.97
2018-06-09T01:26:44.168Z,67.97
2018-06-09T01:27:44.164Z,68.06
2018-06-09T01:28:44.194Z,67.97
2018-06-09T01:29:44.194Z,68.35
2018-06-09T01:30:44.142Z,68.84
2018-06-09T01:31:44.128Z,68.80
2018-06-09T01:32:44.157Z,68.54
2018-06-09T01:33:44.151Z,68.60
2018-06-09T01:34:44.107Z,68.60
2018-06-09T01:35:44.115Z,68.60
2018-06-09T01:36:44.116Z,68.70
2018-06-09T01:37:44.094Z,69.18
2018-06-09T01:38:44.091Z,69.85
2018-06-09T01:39:44.086Z,69.85
2018-06-09T01:40:44.066Z,69.95
2018-06-09T01:41:44.075Z,70.34
2018-06-09T01:42:44.067Z,70.53
2018-06-09T01:43:44.052Z,70.43
2018-06-09T01:44:44.056Z,70.05
2018-06-09T01:45:44.043Z,69.95
2018-06-09T01:46:44.073Z,70.05
2018-06-09T01:47:44.037Z,69.95
2018-06-09T01:48:44.024Z,70.21
2018-06-09T01:49:44.076Z,70.53
2018-06-09T01:50:44.005Z,70.53
2018-06-09T01:51:44.060Z,70.53
2018-06-09T01:52:44.002Z,70.50
2018-06-09T01:53:43.996Z,70.62
2018-06-09T01:54:43.989Z,70.40
2018-06-09T01:55:44.033Z,70.11
2018-06-09T01:56:43.971Z,70.40
2018-06-09T01:57:43.960Z,70.43
2018-06-09T01:58:43.958Z,70.50
2018-06-09T01:59:43.947Z,70.30
2018-06-09T02:00:43.947Z,70.24
2018-06-09T02:01:43.947Z,70.30
2018-06-09T02:02:43.942Z,70.40
2018-06-09T02:03:43.927Z,70.15
2018-06-09T02:04:43.917Z,70.68
2018-06-09T02:05:43.908Z,70.40
2018-06-09T02:06:44.048Z,70.15
2018-06-09T02:07:43.907Z,70.50
2018-06-09T02:08:43.888Z,70.24
2018-06-09T02:09:43.888Z,70.40
2018-06-09T02:10:43.890Z,70.82
2018-06-09T02:11:43.883Z,70.88
2018-06-09T02:12:43.893Z,70.24
2018-06-09T02:13:43.882Z,70.53
2018-06-09T02:14:43.857Z,70.34
2018-06-09T02:15:43.908Z,70.59
2018-06-09T02:16:43.859Z,70.30
2018-06-09T02:17:44.059Z,70.24
2018-06-09T02:18:43.936Z,70.40
2018-06-09T02:19:43.826Z,70.82
2018-06-09T02:20:43.903Z,70.62
2018-06-09T02:21:43.805Z,70.92
2018-06-09T02:22:44.055Z,70.72
2018-06-09T02:23:43.848Z,70.72
2018-06-09T02:24:43.796Z,70.72
2018-06-09T02:25:43.783Z,70.53
2018-06-09T02:26:43.775Z,70.53
2018-06-09T02:27:43.767Z,70.72
2018-06-09T02:28:43.794Z,70.34
2018-06-09T02:29:43.752Z,71.59
2018-06-09T02:30:43.753Z,71.11
2018-06-09T02:31:43.740Z,71.20
2018-06-09T02:32:43.797Z,71.59
2018-06-09T02:33:43.731Z,71.20
2018-06-09T02:34:43.844Z,71.40
2018-06-09T02:35:43.738Z,70.92
2018-06-09T02:36:43.710Z,71.01
2018-06-09T02:37:43.701Z,71.40
2018-06-09T02:38:43.730Z,71.40
2018-06-09T02:39:43.689Z,71.17
2018-06-09T02:40:43.684Z,71.20
2018-06-09T02:41:43.685Z,71.20
2018-06-09T02:42:43.669Z,71.30
2018-06-09T02:43:43.660Z,71.49
2018-06-09T02:44:43.708Z,71.55
2018-06-09T02:45:43.916Z,71.40
2018-06-09T02:46:43.712Z,71.40
2018-06-09T02:47:43.806Z,71.20
2018-06-09T02:48:43.632Z,71.36
2018-06-09T02:49:43.676Z,70.92
2018-06-09T02:50:43.679Z,70.82
2018-06-09T02:51:43.618Z,71.01
2018-06-09T02:52:43.602Z,70.62
2018-06-09T02:53:43.599Z,70.72
2018-06-09T02:54:43.646Z,70.62
2018-06-09T02:55:43.590Z,70.92
2018-06-09T02:56:43.583Z,71.20
2018-06-09T02:57:43.583Z,70.59
2018-06-09T02:58:43.595Z,70.92
2018-06-09T02:59:43.559Z,70.72
2018-06-09T03:00:43.583Z,71.01
2018-06-09T03:01:43.554Z,70.53
2018-06-09T03:02:43.547Z,70.82
2018-06-09T03:03:43.533Z,70.82
2018-06-09T03:04:43.587Z,70.53
2018-06-09T03:05:43.512Z,71.11
2018-06-09T03:06:43.512Z,70.92
2018-06-09T03:07:43.501Z,70.78
2018-06-09T03:08:43.500Z,70.82
2018-06-09T03:09:43.501Z,70.72
2018-06-09T03:10:43.515Z,71.40
2018-06-09T03:11:43.482Z,71.11
2018-06-09T03:12:43.481Z,71.20
2018-06-09T03:13:43.482Z,71.40
2018-06-09T03:14:43.568Z,71.26
2018-06-09T03:15:43.492Z,71.36
2018-06-09T03:16:43.438Z,71.20
2018-06-09T03:17:43.437Z,71.17
2018-06-09T03:18:43.446Z,71.26
2018-06-09T03:19:43.428Z,71.20
2018-06-09T03:20:43.446Z,70.82
2018-06-09T03:21:43.460Z,71.01
2018-06-09T03:22:43.411Z,71.40
2018-06-09T03:23:43.480Z,70.72
2018-06-09T03:24:43.399Z,70.92
2018-06-09T03:25:43.393Z,70.92
2018-06-09T03:26:43.384Z,70.62
2018-06-09T03:27:43.865Z,71.40
2018-06-09T03:28:43.368Z,70.92
2018-06-09T03:29:43.368Z,70.82
2018-06-09T03:30:43.365Z,70.72
2018-06-09T03:31:43.390Z,70.68
2018-06-09T03:32:43.386Z,71.20
2018-06-09T03:33:43.368Z,71.40
2018-06-09T03:34:43.329Z,70.92
2018-06-09T03:35:43.319Z,71.78
2018-06-09T03:36:43.313Z,71.69
2018-06-09T03:37:43.306Z,71.69
2018-06-09T03:38:43.331Z,71.49
2018-06-09T03:39:43.293Z,71.49
2018-06-09T03:40:43.326Z,71.49
2018-06-09T03:41:43.279Z,71.36
2018-06-09T03:42:43.278Z,71.78
2018-06-09T03:43:43.271Z,71.36
2018-06-09T03:44:43.261Z,71.55
2018-06-09T03:45:43.294Z,71.49
2018-06-09T03:46:43.281Z,71.65
2018-06-09T03:47:43.240Z,71.55
2018-06-09T03:48:43.232Z,71.84
2018-06-09T03:49:43.232Z,71.55
2018-06-09T03:50:43.356Z,71.46
2018-06-09T03:51:43.216Z,71.75
2018-06-09T03:52:43.199Z,72.03
2018-06-09T03:53:43.204Z,72.32
2018-06-09T03:54:43.205Z,72.03
2018-06-09T03:55:43.193Z,72.61
2018-06-09T03:56:43.244Z,73.13
2018-06-09T03:57:43.179Z,72.84
2018-06-09T03:58:43.167Z,72.03
2018-06-09T03:59:43.156Z,72.03
2018-06-09T04:00:43.167Z,72.13
2018-06-09T04:01:43.145Z,72.36
2018-06-09T04:02:43.151Z,72.17
2018-06-09T04:03:43.132Z,72.07
2018-06-09T04:04:43.125Z,72.71
2018-06-09T04:05:43.118Z,72.61
2018-06-09T04:06:43.127Z,72.90
2018-06-09T04:07:43.117Z,72.80
2018-06-09T04:08:43.106Z,73.28
2018-06-09T04:09:43.093Z,73.09
2018-06-09T04:10:43.117Z,73.28
2018-06-09T04:11:43.133Z,73.28
2018-06-09T04:12:43.078Z,73.57
2018-06-09T04:13:43.071Z,73.47
2018-06-09T04:14:43.092Z,73.96
2018-06-09T04:15:43.137Z,73.77
2018-06-09T04:16:43.041Z,74.05
2018-06-09T04:17:43.049Z,73.77
2018-06-09T04:18:43.043Z,74.44
2018-06-09T04:19:43.357Z,74.15
2018-06-09T04:20:43.048Z,74.44
2018-06-09T04:21:43.015Z,74.02
2018-06-09T04:22:43.011Z,74.34
2018-06-09T04:23:42.997Z,73.96
2018-06-09T04:24:42.999Z,74.15
2018-06-09T04:25:42.995Z,73.67
2018-06-09T04:26:42.983Z,73.67
2018-06-09T04:27:42.970Z,73.67
2018-06-09T04:28:42.969Z,73.19
2018-06-09T04:29:43.696Z,73.19
2018-06-09T04:30:42.960Z,73.19
2018-06-09T04:31:42.977Z,72.90
2018-06-09T04:32:42.941Z,73.00
2018-06-09T04:33:42.933Z,73.19
2018-06-09T04:34:42.936Z,73.28
2018-06-09T04:35:43.006Z,73.00
2018-06-09T04:36:42.910Z,73.38
2018-06-09T04:37:42.905Z,74.15
2018-06-09T04:38:42.901Z,74.25
2018-06-09T04:39:42.892Z,73.86
2018-06-09T04:40:42.885Z,74.05
2018-06-09T04:41:42.903Z,74.25
2018-06-09T04:42:42.864Z,74.15
2018-06-09T04:43:42.863Z,74.25
2018-06-09T04:44:42.861Z,74.25
2018-06-09T04:45:42.856Z,74.44
2018-06-09T04:46:42.882Z,74.25
2018-06-09T04:47:42.850Z,74.05
2018-06-09T04:48:42.824Z,74.34
2018-06-09T04:49:42.832Z,74.25
2018-06-09T04:50:42.851Z,74.82
2018-06-09T04:51:42.834Z,74.05
2018-06-09T04:52:42.798Z,74.15
2018-06-09T04:53:42.829Z,74.15
2018-06-09T04:54:42.787Z,74.34
2018-06-09T04:55:42.783Z,74.15
2018-06-09T04:56:42.780Z,73.96
2018-06-09T04:57:42.767Z,73.86
2018-06-09T04:58:42.829Z,73.96
2018-06-09T04:59:42.791Z,73.96
2018-06-09T05:00:42.749Z,73.86
2018-06-09T05:01:42.779Z,74.05
2018-06-09T05:02:42.733Z,73.96
2018-06-09T05:03:42.735Z,74.15
2018-06-09T05:04:42.727Z,73.77
2018-06-09T05:05:42.719Z,73.47
2018-06-09T05:06:42.715Z,73.67
2018-06-09T05:07:42.694Z,73.77
2018-06-09T05:08:42.688Z,73.86
2018-06-09T05:09:42.693Z,73.42
2018-06-09T05:10:42.695Z,73.22
2018-06-09T05:11:42.678Z,73.13
2018-06-09T05:12:42.670Z,73.22
2018-06-09T05:13:42.657Z,73.13
2018-06-09T05:14:42.889Z,72.74
2018-06-09T05:15:42.643Z,72.84
2018-06-09T05:16:42.653Z,73.61
2018-06-09T05:17:42.639Z,73.42
2018-06-09T05:18:42.625Z,73.32
2018-06-09T05:19:42.659Z,73.32
2018-06-09T05:20:42.659Z,72.84
2018-06-09T05:21:42.609Z,73.32
2018-06-09T05:22:42.603Z,73.61
2018-06-09T05:23:42.595Z,73.61
2018-06-09T05:24:42.666Z,73.90
2018-06-09T05:25:42.626Z,73.51
2018-06-09T05:26:42.582Z,73.51
2018-06-09T05:27:42.574Z,73.80
2018-06-09T05:28:42.573Z,73.51
2018-06-09T05:29:42.581Z,73.22
2018-06-09T05:30:42.697Z,73.22
2018-06-09T05:31:42.540Z,73.51
2018-06-09T05:32:42.532Z,73.90
2018-06-09T05:33:42.536Z,73.55
2018-06-09T05:34:42.543Z,73.74
2018-06-09T05:35:42.555Z,73.46
2018-06-09T05:36:42.572Z,73.55
2018-06-09T05:37:42.509Z,73.26
2018-06-09T05:38:42.533Z,73.65
2018-06-09T05:39:42.491Z,73.55
2018-06-09T05:40:42.488Z,73.26
2018-06-09T05:41:42.505Z,73.36
2018-06-09T05:42:42.502Z,72.97
2018-06-09T05:43:42.500Z,72.97
2018-06-09T05:44:42.504Z,73.36
2018-06-09T05:45:42.458Z,72.97
2018-06-09T05:46:42.484Z,73.07
2018-06-09T05:47:42.533Z,73.26
2018-06-09T05:48:42.439Z,73.26
2018-06-09T05:49:42.434Z,72.97
2018-06-09T05:50:42.454Z,72.88
2018-06-09T05:51:42.777Z,72.78
2018-06-09T05:52:42.415Z,72.78
2018-06-09T05:53:42.399Z,72.78
2018-06-09T05:54:42.399Z,72.53
2018-06-09T05:55:42.446Z,72.81
2018-06-09T05:56:42.388Z,73.10
2018-06-09T05:57:42.423Z,72.81
2018-06-09T05:58:42.413Z,72.91
2018-06-09T05:59:42.375Z,72.43
2018-06-09T06:00:42.391Z,72.72
2018-06-09T06:01:42.365Z,72.81
2018-06-09T06:02:42.360Z,72.81
2018-06-09T06:03:42.388Z,72.81
2018-06-09T06:04:42.336Z,73.43
2018-06-09T06:05:42.329Z,73.01
2018-06-09T06:06:42.327Z,73.20
2018-06-09T06:07:42.319Z,73.43
2018-06-09T06:08:42.688Z,73.14
2018-06-09T06:09:42.307Z,73.43
2018-06-09T06:10:42.312Z,73.24
2018-06-09T06:11:42.306Z,73.24
2018-06-09T06:12:42.296Z,72.85
2018-06-09T06:13:42.291Z,73.24
2018-06-09T06:14:42.361Z,72.75
2018-06-09T06:15:42.284Z,73.24
2018-06-09T06:16:42.280Z,73.33
2018-06-09T06:17:42.264Z,73.14
2018-06-09T06:18:42.290Z,73.43
2018-06-09T06:19:42.250Z,72.95
2018-06-09T06:20:42.446Z,73.14
2018-06-09T06:21:42.306Z,72.95
2018-06-09T06:22:42.246Z,72.95
2018-06-09T06:23:42.234Z,72.56
2018-06-09T06:24:42.228Z,72.66
2018-06-09T06:25:42.221Z,72.66
2018-06-09T06:26:42.232Z,72.66
2018-06-09T06:27:42.212Z,72.18
2018-06-09T06:28:42.204Z,72.18
2018-06-09T06:29:42.201Z,72.18
2018-06-09T06:30:42.214Z,72.18
2018-06-09T06:31:42.267Z,72.75
2018-06-09T06:32:42.186Z,72.27
2018-06-09T06:33:42.296Z,72.27
2018-06-09T06:34:42.233Z,72.21
2018-06-09T06:35:42.202Z,72.47
2018-06-09T06:36:42.172Z,72.37
2018-06-09T06:37:42.157Z,72.37
2018-06-09T06:38:42.156Z,72.37
2018-06-09T06:39:42.159Z,72.27
2018-06-09T06:40:42.161Z,72.27
2018-06-09T06:41:42.206Z,72.18
2018-06-09T06:42:42.134Z,72.27
2018-06-09T06:43:42.125Z,72.12
2018-06-09T06:44:42.511Z,72.85
2018-06-09T06:45:42.132Z,72.79
2018-06-09T06:46:42.113Z,72.50
2018-06-09T06:47:42.106Z,72.21
2018-06-09T06:48:42.124Z,72.21
2018-06-09T06:49:42.192Z,72.50
2018-06-09T06:50:42.125Z,72.21
2018-06-09T06:51:42.082Z,72.50
2018-06-09T06:52:42.082Z,72.31
2018-06-09T06:53:42.072Z,71.83
2018-06-09T06:54:42.071Z,71.73
2018-06-09T06:55:42.228Z,71.64
2018-06-09T06:56:42.111Z,71.44
2018-06-09T06:57:42.070Z,71.73
2018-06-09T06:58:42.050Z,70.76
2018-06-09T06:59:42.098Z,71.15
2018-06-09T07:00:42.041Z,71.06
2018-06-09T07:01:42.049Z,71.06
2018-06-09T07:02:42.049Z,70.96
2018-06-09T07:03:42.076Z,71.25
2018-06-09T07:04:42.024Z,71.06
2018-06-09T07:05:42.010Z,70.76
2018-06-09T07:06:42.059Z,70.76
2018-06-09T07:07:42.008Z,71.25
2018-06-09T07:08:42.038Z,71.28
2018-06-09T07:09:42.021Z,71.19
2018-06-09T07:10:41.989Z,71.00
2018-06-09T07:11:42.275Z,70.70
2018-06-09T07:12:41.976Z,70.32
2018-06-09T07:13:41.975Z,70.51
2018-06-09T07:14:41.976Z,70.22
2018-06-09T07:15:42.005Z,69.84
2018-06-09T07:16:41.961Z,69.93
2018-06-09T07:17:41.965Z,70.32
2018-06-09T07:18:42.077Z,70.32
2018-06-09T07:19:42.050Z,70.61
2018-06-09T07:20:41.960Z,70.61
2018-06-09T07:21:42.286Z,70.70
2018-06-09T07:22:42.717Z,70.03
2018-06-09T07:23:42.244Z,70.03
2018-06-09T07:24:41.919Z,70.61
2018-06-09T07:25:41.919Z,70.74
2018-06-09T07:26:41.914Z,70.03
2018-06-09T07:27:41.933Z,70.06
2018-06-09T07:28:41.919Z,70.06
2018-06-09T07:29:41.905Z,69.93
2018-06-09T07:30:41.887Z,70.03
2018-06-09T07:31:41.921Z,70.03
2018-06-09T07:32:41.885Z,70.16
2018-06-09T07:33:41.871Z,70.06
2018-06-09T07:34:41.873Z,70.13
2018-06-09T07:35:41.866Z,70.03
2018-06-09T07:36:41.870Z,69.74
2018-06-09T07:37:41.857Z,70.06
2018-06-09T07:38:41.858Z,70.06
2018-06-09T07:39:41.858Z,69.97
2018-06-09T07:40:41.845Z,69.87
2018-06-09T07:41:41.879Z,69.78
2018-06-09T07:42:41.842Z,69.97
2018-06-09T07:48:16.398Z,70.87
2018-06-09T07:49:16.560Z,71.06
2018-06-09T07:50:16.128Z,71.06
2018-06-09T07:51:15.946Z,70.68
2018-06-09T07:52:15.971Z,71.06
2018-06-09T07:53:15.935Z,70.58
2018-06-09T07:54:15.935Z,70.78
2018-06-09T07:55:16.024Z,70.48
2018-06-09T07:56:15.939Z,70.10
2018-06-09T07:57:15.932Z,70.29
2018-06-09T07:58:15.916Z,69.90
2018-06-09T07:59:15.904Z,70.20
2018-06-09T08:00:15.936Z,69.90
2018-06-09T08:01:15.921Z,70.14
2018-06-09T08:02:15.915Z,69.71
2018-06-09T08:03:15.923Z,70.10
2018-06-09T08:04:15.902Z,68.94
2018-06-09T08:05:15.923Z,69.13
2018-06-09T08:06:15.926Z,69.52
2018-06-09T08:07:15.920Z,68.98
2018-06-09T08:08:15.930Z,68.98
2018-06-09T08:09:15.897Z,68.98
2018-06-09T08:10:15.878Z,68.98
2018-06-09T08:11:15.866Z,68.78
2018-06-09T08:12:15.912Z,68.78
2018-06-09T08:13:15.930Z,68.78
2018-06-09T08:14:15.938Z,68.78
2018-06-09T08:15:15.889Z,68.88
2018-06-09T08:16:15.922Z,68.68
2018-06-09T08:17:15.850Z,68.49
2018-06-09T08:18:15.915Z,68.20
2018-06-09T08:19:15.842Z,68.10
2018-06-09T08:20:15.852Z,68.68
2018-06-09T08:21:15.839Z,68.10
2018-06-09T08:22:15.851Z,68.14
2018-06-09T08:23:15.829Z,68.82
2018-06-09T08:24:15.838Z,69.10
2018-06-09T08:25:15.872Z,68.82
2018-06-09T08:26:15.821Z,69.01
2018-06-09T08:27:15.974Z,68.46
2018-06-09T08:28:16.504Z,67.40
2018-06-09T08:29:15.848Z,68.08
2018-06-09T08:30:15.798Z,68.08
2018-06-09T08:31:15.790Z,68.27
2018-06-09T08:32:15.945Z,68.37
2018-06-09T08:33:15.941Z,68.85
2018-06-09T08:34:15.840Z,68.88
2018-06-09T08:35:15.790Z,68.98
2018-06-09T08:36:15.891Z,68.98
2018-06-09T08:37:15.779Z,68.40
2018-06-09T08:38:15.788Z,67.72
2018-06-09T08:39:16.917Z,66.66
2018-06-09T08:40:15.787Z,66.95
2018-06-09T08:41:15.787Z,67.33
2018-06-09T08:42:16.133Z,67.85
2018-06-09T08:43:15.773Z,67.85
2018-06-09T08:44:16.522Z,68.47
2018-06-09T08:45:15.779Z,67.21
2018-06-09T08:46:17.527Z,64.72
2018-06-09T08:47:15.766Z,64.85
2018-06-09T08:48:15.828Z,64.95
2018-06-09T08:49:15.781Z,64.69
2018-06-09T08:50:15.808Z,62.95
2018-06-09T08:51:15.796Z,63.13
2018-06-09T08:52:15.773Z,63.36
2018-06-09T08:53:15.797Z,63.26
2018-06-09T08:54:16.154Z,62.59
2018-06-09T08:55:15.798Z,61.04
2018-06-09T08:56:15.770Z,61.25
2018-06-09T08:57:15.835Z,61.45
2018-06-09T08:58:15.985Z,61.09
2018-06-09T08:59:16.283Z,60.83
2018-06-09T09:00:16.115Z,60.67
2018-06-09T09:01:15.774Z,59.14
2018-06-09T09:02:15.778Z,57.78
2018-06-09T09:03:15.935Z,57.32
2018-06-09T09:04:15.766Z,57.25
2018-06-09T09:05:16.321Z,56.27
2018-06-09T09:06:15.769Z,57.18
2018-06-09T09:07:15.882Z,57.89
2018-06-09T09:08:15.873Z,57.50
2018-06-09T09:09:16.161Z,57.34
2018-06-09T09:10:15.809Z,57.85
2018-06-09T09:11:15.787Z,57.46
2018-06-09T09:12:15.841Z,55.83
2018-06-09T09:13:15.803Z,56.90
2018-06-09T09:14:15.842Z,55.24
2018-06-09T09:15:16.021Z,55.05
2018-06-09T09:16:15.798Z,55.15
2018-06-09T09:17:15.804Z,55.47
2018-06-09T09:18:15.815Z,55.57
2018-06-09T09:19:15.844Z,55.47
2018-06-09T09:20:16.201Z,55.86
2018-06-09T09:21:15.823Z,55.79
2018-06-09T09:22:15.817Z,56.10
2018-06-09T09:23:15.975Z,54.91
2018-06-09T09:24:15.861Z,53.34
2018-06-09T09:25:15.881Z,53.44
2018-06-09T09:26:15.866Z,53.93
2018-06-09T09:27:15.930Z,54.81
2018-06-09T09:28:15.993Z,54.54
2018-06-09T09:29:15.861Z,54.64
2018-06-09T09:30:15.901Z,55.13
2018-06-09T09:31:15.876Z,55.55
2018-06-09T09:32:15.944Z,54.28
2018-06-09T09:33:15.884Z,54.89
2018-06-09T09:34:15.879Z,52.83
2018-06-09T09:35:15.908Z,49.80
2018-06-09T09:36:15.901Z,48.43
2018-06-09T09:37:15.895Z,49.80
2018-06-09T09:38:15.916Z,50.88
2018-06-09T09:39:16.538Z,50.02
2018-06-09T09:40:15.948Z,49.70
2018-06-09T09:41:16.191Z,49.90
2018-06-09T09:42:15.930Z,48.92
2018-06-09T09:43:15.942Z,49.14
2018-06-09T09:44:15.939Z,49.51
2018-06-09T09:45:15.969Z,50.59
2018-06-09T09:46:15.977Z,51.17
2018-06-09T09:47:15.962Z,51.17
2018-06-09T09:48:15.996Z,51.37
2018-06-09T09:49:15.964Z,51.17
2018-06-09T09:50:16.007Z,52.05
2018-06-09T09:51:16.001Z,51.56
2018-06-09T09:52:16.019Z,49.58
2018-06-09T09:53:15.990Z,48.70
2018-06-09T09:54:15.995Z,49.46
2018-06-09T09:55:16.034Z,51.12
2018-06-09T09:56:16.003Z,50.90
2018-06-09T09:57:16.054Z,51.78
2018-06-09T09:58:16.018Z,52.66
2018-06-09T09:59:16.027Z,52.93
2018-06-09T10:00:16.058Z,53.42
2018-06-09T10:01:16.025Z,53.71
2018-06-09T10:02:16.031Z,53.61
2018-06-09T10:03:16.503Z,53.13
2018-06-09T10:04:16.038Z,53.29
2018-06-09T10:05:16.038Z,53.88
2018-06-09T10:06:16.051Z,53.95
2018-06-09T10:07:16.193Z,52.87
2018-06-09T10:08:16.103Z,53.14
2018-06-09T10:09:16.111Z,53.92
2018-06-09T10:10:16.049Z,53.60
2018-06-09T10:11:16.076Z,53.99
2018-06-09T10:12:16.062Z,54.90
2018-06-09T10:13:16.107Z,54.90
2018-06-09T10:14:16.162Z,54.31
2018-06-09T10:15:16.403Z,52.26
2018-06-09T10:16:16.885Z,52.04
2018-06-09T10:17:16.552Z,52.53
2018-06-09T10:18:16.163Z,53.21
2018-06-09T10:19:16.071Z,53.60
2018-06-09T10:20:16.295Z,54.41
2018-06-09T10:21:16.282Z,55.38
2018-06-09T10:22:16.098Z,55.32
2018-06-09T10:23:16.090Z,53.27
2018-06-09T10:24:16.172Z,53.00
2018-06-09T10:25:26.000Z,52.12
2018-06-09T10:26:16.153Z,50.39
2018-06-09T10:27:16.083Z,50.88
2018-06-09T10:28:16.099Z,51.07
2018-06-09T10:29:16.094Z,51.17
2018-06-09T10:30:16.099Z,50.95
2018-06-09T10:31:16.101Z,51.34
2018-06-09T10:32:16.138Z,51.92
2018-06-09T10:33:16.132Z,51.63
2018-06-09T10:34:16.123Z,52.09
2018-06-09T10:35:16.131Z,53.29
2018-06-09T10:36:16.136Z,53.07
2018-06-09T10:37:16.145Z,53.75
2018-06-09T10:38:16.131Z,54.05
2018-06-09T10:39:16.117Z,54.31
2018-06-09T10:40:16.130Z,54.50
2018-06-09T10:41:16.121Z,54.97
2018-06-09T10:42:16.167Z,54.87
2018-06-09T10:43:16.128Z,55.43
2018-06-09T10:44:16.132Z,55.52
2018-06-09T10:45:16.172Z,56.40
2018-06-09T10:46:16.127Z,56.30
2018-06-09T10:47:16.334Z,56.27
2018-06-09T10:48:16.378Z,56.76
2018-06-09T10:49:16.161Z,56.76
2018-06-09T10:50:16.156Z,56.37
2018-06-09T10:51:16.137Z,55.30
2018-06-09T10:52:16.138Z,56.27
2018-06-09T10:53:16.175Z,56.93
2018-06-09T10:54:16.142Z,57.06
2018-06-09T10:55:16.143Z,56.37
2018-06-09T10:56:16.147Z,57.18
2018-06-09T10:57:16.148Z,58.02
2018-06-09T10:58:16.202Z,57.26
2018-06-09T10:59:16.156Z,55.08
2018-06-09T11:00:16.152Z,54.00
2018-06-09T11:01:16.151Z,53.13
2018-06-09T11:02:16.145Z,51.59
2018-06-09T11:03:16.162Z,50.81
2018-06-09T11:04:16.186Z,51.66
2018-06-09T11:05:16.201Z,52.34
2018-06-09T11:06:16.163Z,52.44
2018-06-09T11:07:16.160Z,53.83
2018-06-09T11:08:16.162Z,53.56
2018-06-09T11:09:16.222Z,53.96
2018-06-09T11:10:16.174Z,52.69
2018-06-09T11:11:16.460Z,53.37
2018-06-09T11:12:16.188Z,53.44
2018-06-09T11:13:16.188Z,54.03
2018-06-09T11:14:16.657Z,54.64
2018-06-09T11:15:16.383Z,53.78
2018-06-09T11:16:16.197Z,51.07
2018-06-09T11:17:16.282Z,48.75
2018-06-09T11:18:16.295Z,49.53
2018-06-09T11:19:16.195Z,49.29
2018-06-09T11:20:16.345Z,49.31
2018-06-09T11:21:16.213Z,50.32
2018-06-09T11:22:16.217Z,47.30
2018-06-09T11:23:16.231Z,44.96
2018-06-09T11:24:16.229Z,45.67
2018-06-09T11:25:16.233Z,45.67
2018-06-09T11:26:16.392Z,45.40
2018-06-09T11:27:16.246Z,42.28
2018-06-09T11:28:16.261Z,43.36
2018-06-09T11:29:16.271Z,44.66
2018-06-09T11:30:16.269Z,45.17
2018-06-09T11:31:16.277Z,46.06
2018-06-09T11:32:16.710Z,44.40
2018-06-09T11:33:16.291Z,44.82
2018-06-09T11:34:16.293Z,44.43
2018-06-09T11:35:16.309Z,44.35
2018-06-09T11:36:16.321Z,42.68
2018-06-09T11:37:16.349Z,43.27
2018-06-09T11:38:16.338Z,43.29
2018-06-09T11:39:16.361Z,44.27
2018-06-09T11:40:16.345Z,43.59
2018-06-09T11:41:16.359Z,43.29
2018-06-09T11:42:16.365Z,43.11
2018-06-09T11:43:16.368Z,37.41
2018-06-09T11:44:16.730Z,40.64
2018-06-09T11:45:16.388Z,40.45
2018-06-09T11:46:16.399Z,41.43
2018-06-09T11:47:16.411Z,41.43
2018-06-09T11:48:16.407Z,42.82
2018-06-09T11:49:16.427Z,41.73
2018-06-09T11:50:16.436Z,41.51
2018-06-09T11:51:16.433Z,40.43
2018-06-09T11:52:16.453Z,41.39
2018-06-09T11:53:16.595Z,40.69
2018-06-09T11:54:16.476Z,41.45
2018-06-09T11:55:16.470Z,42.12
2018-06-09T11:56:16.498Z,43.57
2018-06-09T11:57:16.483Z,44.22
2018-06-09T11:58:16.498Z,39.29
2018-06-09T11:59:16.537Z,41.24
2018-06-09T12:00:16.505Z,42.98
2018-06-09T12:01:16.514Z,44.16
2018-06-09T12:02:16.514Z,46.20
2018-06-09T12:03:16.521Z,43.13
2018-06-09T12:04:16.575Z,45.39
2018-06-09T12:05:16.565Z,45.68
2018-06-09T12:06:16.545Z,45.07
2018-06-09T12:07:16.548Z,45.54
2018-06-09T12:08:16.549Z,45.44
2018-06-09T12:09:16.582Z,43.85
2018-06-09T12:10:16.552Z,42.48
2018-06-09T12:11:16.582Z,42.66
2018-06-09T12:12:16.583Z,43.73
2018-06-09T12:13:16.570Z,44.89
2018-06-09T12:14:16.581Z,44.98
2018-06-09T12:15:16.565Z,45.67
2018-06-09T12:16:16.600Z,46.82
2018-06-09T12:17:16.622Z,47.31
2018-06-09T12:18:16.581Z,47.21
2018-06-09T12:19:16.586Z,47.50
2018-06-09T12:20:16.613Z,47.21
2018-06-09T12:21:16.659Z,47.89
2018-06-09T12:22:16.589Z,47.77
2018-06-09T12:23:16.591Z,47.48
2018-06-09T12:24:16.593Z,46.11
2018-06-09T12:25:16.597Z,45.90
2018-06-09T12:26:16.598Z,47.07
2018-06-09T12:27:16.612Z,47.17
2018-06-09T12:28:16.601Z,47.24
2018-06-09T12:29:16.604Z,47.36
2018-06-09T12:30:16.604Z,48.71
2018-06-09T12:31:16.606Z,48.71
2018-06-09T12:32:16.732Z,49.10
2018-06-09T12:33:16.603Z,49.58
2018-06-09T12:34:16.614Z,48.78
2018-06-09T12:35:16.609Z,49.46
2018-06-09T12:36:16.604Z,49.46
2018-06-09T12:37:16.620Z,48.58
2018-06-09T12:38:16.743Z,48.49
2018-06-09T12:39:16.627Z,49.07
2018-06-09T12:40:16.624Z,49.56
2018-06-09T12:41:16.632Z,48.29
2018-06-09T12:42:16.628Z,48.97
2018-06-09T12:43:16.624Z,49.56
2018-06-09T12:44:16.659Z,50.04
2018-06-09T12:45:16.622Z,49.76
2018-06-09T12:46:16.631Z,49.56
2018-06-09T12:47:16.630Z,49.85
2018-06-09T12:48:16.654Z,49.76
2018-06-09T12:49:16.746Z,49.46
2018-06-09T12:50:16.625Z,49.07
2018-06-09T12:51:16.631Z,48.68
2018-06-09T12:52:16.648Z,48.58
2018-06-09T12:53:16.633Z,49.05
2018-06-09T12:54:16.641Z,47.29
2018-06-09T12:55:16.643Z,48.66
2018-06-09T12:56:16.636Z,49.73
2018-06-09T12:57:16.632Z,49.83